Terminal Aerodrome Forecast
Issued by NWS Duluth, MN

Home | Current Version | Previous Version | Text Only | Print | Product List | Glossary On
Versions: 1 2 3 4 5 6 7 8 9 10 11 12 13 14 15 16 17 18 19 20 21 22 23 24 25 26 27 28 29 30 31 32 33
000
FTUS43 KDLH 252341
TAFDLH
TAF
KDLH 252341Z 2600/2624 09017G21KT 5SM -RA BR BKN005 OVC070
      TEMPO 2600/2603 3SM BR OVC003
     FM260300 09012KT 4SM BR OVC004
     FM260600 09009KT 1/2SM FG OVC002
     FM261500 15008KT 3SM BR BKN008
     FM261800 22008KT P6SM SCT008=

USA.gov is the U.S. government's official web portal to all federal, state and local government web resources and services.